DAL5787 KATL-KTLH
Flight info
| Callsign | DAL5787 |
|---|---|
| Flight time | 0h 42m |
| Altitude | 23000 |
| Route | BANNG3 LUCKK SZW |
| Aircraft | B739/M-SDE2E3FGHIRWXY/LB1 |
Departure
| Time | 2026-05-07 19:56 |
|---|---|
| Airport | Hartsfield Jackson Atlanta International Airport (KATL) |
Arrival
| Time | 2026-05-07 20:39 |
|---|---|
| Airport | Tallahassee International Airport (KTLH) |
| Time | Latitude | Longitude | Altitude | Speed | Heading |
|---|---|---|---|---|---|
| 2026-05-07 19:27 | 33.64015 | -84.43868 | 1005 ft | 0 kts | 271° |
| 2026-05-07 19:45 | 33.64015 | -84.43854 | 1005 ft | 3 kts | 266° |
| 2026-05-07 19:45 | 33.64017 | -84.43830 | 1005 ft | 3 kts | 254° |
| 2026-05-07 19:45 | 33.64024 | -84.43807 | 1005 ft | 3 kts | 238° |
| 2026-05-07 19:45 | 33.64036 | -84.43790 | 1005 ft | 3 kts | 209° |
| 2026-05-07 19:46 | 33.64049 | -84.43784 | 1005 ft | 1 kts | 180° |
| 2026-05-07 19:46 | 33.64050 | -84.43784 | 1005 ft | 0 kts | 180° |
| 2026-05-07 19:48 | 33.64040 | -84.43784 | 1005 ft | 5 kts | 180° |
| 2026-05-07 19:48 | 33.63970 | -84.43784 | 1005 ft | 15 kts | 180° |
| 2026-05-07 19:48 | 33.63842 | -84.43784 | 1005 ft | 20 kts | 180° |
| 2026-05-07 19:49 | 33.63708 | -84.43781 | 1005 ft | 19 kts | 167° |
| 2026-05-07 19:49 | 33.63664 | -84.43647 | 1005 ft | 18 kts | 89° |
| 2026-05-07 19:49 | 33.63665 | -84.43496 | 1005 ft | 18 kts | 90° |
| 2026-05-07 19:49 | 33.63665 | -84.43350 | 1005 ft | 17 kts | 90° |
| 2026-05-07 19:50 | 33.63665 | -84.43200 | 1005 ft | 20 kts | 90° |
| 2026-05-07 19:50 | 33.63666 | -84.43029 | 1005 ft | 20 kts | 90° |
| 2026-05-07 19:50 | 33.63665 | -84.42864 | 1005 ft | 20 kts | 90° |
| 2026-05-07 19:50 | 33.63656 | -84.42703 | 1006 ft | 19 kts | 94° |
| 2026-05-07 19:51 | 33.63655 | -84.42548 | 1006 ft | 18 kts | 90° |
| 2026-05-07 19:51 | 33.63655 | -84.42395 | 1006 ft | 19 kts | 90° |
| 2026-05-07 19:51 | 33.63655 | -84.42233 | 1006 ft | 19 kts | 90° |
| 2026-05-07 19:51 | 33.63655 | -84.42074 | 1006 ft | 19 kts | 90° |
| 2026-05-07 19:52 | 33.63656 | -84.41921 | 1005 ft | 18 kts | 89° |
| 2026-05-07 19:52 | 33.63657 | -84.41773 | 1005 ft | 17 kts | 90° |
| 2026-05-07 19:52 | 33.63656 | -84.41631 | 1005 ft | 17 kts | 90° |
| 2026-05-07 19:52 | 33.63655 | -84.41479 | 1005 ft | 19 kts | 90° |
| 2026-05-07 19:53 | 33.63655 | -84.41324 | 1005 ft | 18 kts | 90° |
| 2026-05-07 19:53 | 33.63656 | -84.41173 | 1005 ft | 18 kts | 89° |
| 2026-05-07 19:53 | 33.63656 | -84.41021 | 1005 ft | 18 kts | 90° |
| 2026-05-07 19:53 | 33.63630 | -84.40911 | 1005 ft | 13 kts | 162° |
| 2026-05-07 19:54 | 33.63572 | -84.40907 | 1005 ft | 0 kts | 180° |
| 2026-05-07 19:54 | 33.63571 | -84.40907 | 1005 ft | 2 kts | 180° |
| 2026-05-07 19:54 | 33.63524 | -84.40908 | 1006 ft | 11 kts | 181° |
| 2026-05-07 19:54 | 33.63506 | -84.40910 | 1006 ft | 0 kts | 187° |
| 2026-05-07 19:55 | 33.63499 | -84.40912 | 1006 ft | 5 kts | 191° |
| 2026-05-07 19:55 | 33.63474 | -84.40970 | 1006 ft | 14 kts | 267° |
| 2026-05-07 19:55 | 33.63471 | -84.41285 | 1005 ft | 69 kts | 270° |
| 2026-05-07 19:56 | 33.63470 | -84.42104 | 1005 ft | 125 kts | 270° |
| 2026-05-07 19:56 | 33.63471 | -84.43317 | 1041 ft | 162 kts | 272° |
| 2026-05-07 19:56 | 33.63483 | -84.44665 | 1579 ft | 155 kts | 273° |
| 2026-05-07 19:56 | 33.63480 | -84.45972 | 2001 ft | 167 kts | 273° |
| 2026-05-07 19:57 | 33.63473 | -84.47429 | 2309 ft | 180 kts | 272° |
| 2026-05-07 19:57 | 33.63466 | -84.48954 | 2721 ft | 189 kts | 272° |
| 2026-05-07 19:57 | 33.63462 | -84.50628 | 2846 ft | 212 kts | 270° |
| 2026-05-07 19:57 | 33.63457 | -84.52491 | 3009 ft | 234 kts | 270° |
| 2026-05-07 19:58 | 33.63454 | -84.54541 | 3202 ft | 257 kts | 270° |
| 2026-05-07 19:58 | 33.63453 | -84.56736 | 3678 ft | 267 kts | 270° |
| 2026-05-07 19:58 | 33.63453 | -84.58979 | 4310 ft | 270 kts | 270° |
| 2026-05-07 19:58 | 33.63453 | -84.61243 | 4987 ft | 272 kts | 270° |
| 2026-05-07 19:59 | 33.63433 | -84.63524 | 5644 ft | 275 kts | 264° |
| 2026-05-07 19:59 | 33.62823 | -84.65675 | 6266 ft | 278 kts | 234° |
| 2026-05-07 19:59 | 33.61417 | -84.67251 | 6936 ft | 280 kts | 212° |
| 2026-05-07 19:59 | 33.59727 | -84.68439 | 7581 ft | 283 kts | 209° |
| 2026-05-07 20:00 | 33.57934 | -84.69440 | 8183 ft | 288 kts | 192° |
| 2026-05-07 20:00 | 33.55935 | -84.69503 | 8849 ft | 289 kts | 172° |
| 2026-05-07 20:00 | 33.53934 | -84.69134 | 9506 ft | 293 kts | 170° |
| 2026-05-07 20:00 | 33.51916 | -84.68716 | 10180 ft | 296 kts | 170° |
| 2026-05-07 20:01 | 33.49877 | -84.68299 | 10883 ft | 298 kts | 171° |
| 2026-05-07 20:01 | 33.47818 | -84.67895 | 11581 ft | 301 kts | 171° |
| 2026-05-07 20:01 | 33.45738 | -84.67498 | 12271 ft | 304 kts | 171° |
| 2026-05-07 20:01 | 33.43638 | -84.67102 | 12961 ft | 307 kts | 171° |
| 2026-05-07 20:02 | 33.41528 | -84.66620 | 13606 ft | 312 kts | 163° |
| 2026-05-07 20:02 | 33.39442 | -84.65641 | 13791 ft | 333 kts | 155° |
| 2026-05-07 20:02 | 33.37273 | -84.64435 | 13962 ft | 353 kts | 154° |
| 2026-05-07 20:02 | 33.34993 | -84.63141 | 14108 ft | 372 kts | 154° |
| 2026-05-07 20:03 | 33.32604 | -84.61796 | 14393 ft | 384 kts | 155° |
| 2026-05-07 20:03 | 33.30161 | -84.60441 | 14907 ft | 389 kts | 155° |
| 2026-05-07 20:03 | 33.27695 | -84.59090 | 15515 ft | 391 kts | 155° |
| 2026-05-07 20:03 | 33.25208 | -84.57741 | 16108 ft | 394 kts | 155° |
| 2026-05-07 20:04 | 33.22699 | -84.56388 | 16659 ft | 397 kts | 155° |
| 2026-05-07 20:04 | 33.20170 | -84.55027 | 17185 ft | 400 kts | 156° |
| 2026-05-07 20:04 | 33.17622 | -84.53658 | 17698 ft | 403 kts | 156° |
| 2026-05-07 20:04 | 33.15052 | -84.52279 | 18197 ft | 406 kts | 156° |
| 2026-05-07 20:05 | 33.12497 | -84.50908 | 18677 ft | 409 kts | 156° |
| 2026-05-07 20:05 | 33.09890 | -84.49510 | 19142 ft | 413 kts | 156° |
| 2026-05-07 20:05 | 33.07230 | -84.48083 | 19597 ft | 416 kts | 156° |
| 2026-05-07 20:05 | 33.04578 | -84.46662 | 20035 ft | 419 kts | 156° |
| 2026-05-07 20:06 | 33.01915 | -84.45236 | 20458 ft | 422 kts | 156° |
| 2026-05-07 20:06 | 32.99232 | -84.43801 | 20866 ft | 424 kts | 156° |
| 2026-05-07 20:06 | 32.96541 | -84.42442 | 21243 ft | 427 kts | 162° |
| 2026-05-07 20:06 | 32.93604 | -84.41918 | 21579 ft | 430 kts | 180° |
| 2026-05-07 20:07 | 32.90609 | -84.41933 | 21996 ft | 431 kts | 180° |
| 2026-05-07 20:07 | 32.87610 | -84.41923 | 22460 ft | 431 kts | 179° |
| 2026-05-07 20:07 | 32.84616 | -84.41892 | 22894 ft | 431 kts | 179° |
| 2026-05-07 20:07 | 32.81593 | -84.41846 | 22968 ft | 438 kts | 179° |
| 2026-05-07 20:08 | 32.78527 | -84.41789 | 22983 ft | 443 kts | 179° |
| 2026-05-07 20:08 | 32.75430 | -84.41727 | 22987 ft | 445 kts | 179° |
| 2026-05-07 20:08 | 32.72343 | -84.41664 | 22976 ft | 443 kts | 179° |
| 2026-05-07 20:08 | 32.69268 | -84.41600 | 22971 ft | 442 kts | 179° |
| 2026-05-07 20:09 | 32.66200 | -84.41537 | 22971 ft | 441 kts | 179° |
| 2026-05-07 20:09 | 32.63135 | -84.41475 | 22973 ft | 441 kts | 179° |
| 2026-05-07 20:09 | 32.60069 | -84.41414 | 22974 ft | 441 kts | 179° |
| 2026-05-07 20:10 | 32.53925 | -84.41291 | 22966 ft | 442 kts | 179° |
| 2026-05-07 20:10 | 32.50848 | -84.41229 | 22964 ft | 443 kts | 179° |
| 2026-05-07 20:10 | 32.47766 | -84.41168 | 22961 ft | 443 kts | 179° |
| 2026-05-07 20:10 | 32.44685 | -84.41106 | 22957 ft | 444 kts | 179° |
| 2026-05-07 20:11 | 32.41593 | -84.41044 | 22952 ft | 444 kts | 179° |
| 2026-05-07 20:11 | 32.38505 | -84.40983 | 22946 ft | 444 kts | 179° |
| 2026-05-07 20:11 | 32.35416 | -84.40921 | 22943 ft | 444 kts | 179° |
| 2026-05-07 20:11 | 32.32325 | -84.40859 | 22944 ft | 444 kts | 179° |
| 2026-05-07 20:12 | 32.29237 | -84.40798 | 22944 ft | 444 kts | 179° |
| 2026-05-07 20:12 | 32.26151 | -84.40737 | 22944 ft | 444 kts | 179° |
| 2026-05-07 20:12 | 32.23067 | -84.40675 | 22944 ft | 443 kts | 179° |
| 2026-05-07 20:12 | 32.19984 | -84.40614 | 22944 ft | 443 kts | 179° |
| 2026-05-07 20:13 | 32.16900 | -84.40552 | 22944 ft | 443 kts | 179° |
| 2026-05-07 20:13 | 32.13821 | -84.40491 | 22945 ft | 443 kts | 179° |
| 2026-05-07 20:13 | 32.10737 | -84.40429 | 22945 ft | 443 kts | 179° |
| 2026-05-07 20:13 | 32.07655 | -84.40368 | 22945 ft | 443 kts | 179° |
| 2026-05-07 20:14 | 32.04573 | -84.40307 | 22945 ft | 443 kts | 179° |
| 2026-05-07 20:14 | 32.01489 | -84.40245 | 22946 ft | 443 kts | 179° |
| 2026-05-07 20:14 | 31.98409 | -84.40184 | 22950 ft | 443 kts | 179° |
| 2026-05-07 20:14 | 31.95328 | -84.40123 | 22954 ft | 443 kts | 179° |
| 2026-05-07 20:15 | 31.92247 | -84.40062 | 22960 ft | 443 kts | 179° |
| 2026-05-07 20:15 | 31.89164 | -84.40001 | 22962 ft | 443 kts | 179° |
| 2026-05-07 20:15 | 31.86082 | -84.39940 | 22964 ft | 443 kts | 179° |
| 2026-05-07 20:15 | 31.82999 | -84.39879 | 22968 ft | 443 kts | 179° |
| 2026-05-07 20:16 | 31.79921 | -84.39818 | 22972 ft | 443 kts | 179° |
| 2026-05-07 20:16 | 31.76836 | -84.39757 | 22973 ft | 443 kts | 179° |
| 2026-05-07 20:16 | 31.73796 | -84.39697 | 22972 ft | 443 kts | 179° |
| 2026-05-07 20:16 | 31.70713 | -84.39636 | 22972 ft | 443 kts | 179° |
| 2026-05-07 20:17 | 31.67625 | -84.39576 | 22973 ft | 443 kts | 179° |
| 2026-05-07 20:17 | 31.64542 | -84.39515 | 22972 ft | 443 kts | 179° |
| 2026-05-07 20:17 | 31.61460 | -84.39454 | 22972 ft | 443 kts | 179° |
| 2026-05-07 20:17 | 31.58378 | -84.39394 | 22974 ft | 443 kts | 179° |
| 2026-05-07 20:18 | 31.55295 | -84.39333 | 22961 ft | 442 kts | 179° |
| 2026-05-07 20:18 | 31.52252 | -84.39273 | 22679 ft | 431 kts | 179° |
| 2026-05-07 20:18 | 31.49295 | -84.39215 | 22424 ft | 419 kts | 179° |
| 2026-05-07 20:18 | 31.46417 | -84.39159 | 22163 ft | 408 kts | 179° |
| 2026-05-07 20:19 | 31.43604 | -84.39103 | 21912 ft | 402 kts | 179° |
| 2026-05-07 20:19 | 31.40809 | -84.39049 | 21667 ft | 401 kts | 179° |
| 2026-05-07 20:19 | 31.38026 | -84.38994 | 21419 ft | 400 kts | 179° |
| 2026-05-07 20:19 | 31.36147 | -84.38958 | 21255 ft | 400 kts | 179° |
| 2026-05-07 20:20 | 31.33368 | -84.38903 | 21007 ft | 399 kts | 179° |
| 2026-05-07 20:20 | 31.30597 | -84.38849 | 20761 ft | 398 kts | 179° |
| 2026-05-07 20:20 | 31.27830 | -84.38795 | 20521 ft | 397 kts | 179° |
| 2026-05-07 20:20 | 31.25103 | -84.38741 | 20263 ft | 397 kts | 179° |
| 2026-05-07 20:21 | 31.22344 | -84.38688 | 20013 ft | 396 kts | 179° |
| 2026-05-07 20:21 | 31.19587 | -84.38634 | 19768 ft | 395 kts | 179° |
| 2026-05-07 20:21 | 31.16841 | -84.38580 | 19518 ft | 394 kts | 179° |
| 2026-05-07 20:21 | 31.14110 | -84.38527 | 19058 ft | 392 kts | 179° |
| 2026-05-07 20:22 | 31.11398 | -84.38474 | 18580 ft | 387 kts | 179° |
| 2026-05-07 20:22 | 31.08718 | -84.38422 | 18048 ft | 384 kts | 179° |
| 2026-05-07 20:22 | 31.06055 | -84.38370 | 17527 ft | 381 kts | 179° |
| 2026-05-07 20:22 | 31.03417 | -84.38319 | 17004 ft | 378 kts | 179° |
| 2026-05-07 20:23 | 31.00793 | -84.38268 | 16477 ft | 375 kts | 179° |
| 2026-05-07 20:23 | 30.98192 | -84.38217 | 15952 ft | 373 kts | 179° |
| 2026-05-07 20:23 | 30.95605 | -84.38167 | 15429 ft | 370 kts | 179° |
| 2026-05-07 20:23 | 30.93037 | -84.38117 | 14910 ft | 368 kts | 179° |
| 2026-05-07 20:24 | 30.90487 | -84.38068 | 14392 ft | 365 kts | 179° |
| 2026-05-07 20:24 | 30.87954 | -84.38019 | 13880 ft | 363 kts | 179° |
| 2026-05-07 20:24 | 30.85436 | -84.37970 | 13370 ft | 360 kts | 179° |
| 2026-05-07 20:24 | 30.82936 | -84.37922 | 12859 ft | 358 kts | 179° |
| 2026-05-07 20:25 | 30.80454 | -84.37874 | 12351 ft | 356 kts | 179° |
| 2026-05-07 20:25 | 30.77987 | -84.37826 | 11844 ft | 354 kts | 179° |
| 2026-05-07 20:25 | 30.75532 | -84.37778 | 11338 ft | 352 kts | 179° |
| 2026-05-07 20:25 | 30.73095 | -84.37731 | 10837 ft | 350 kts | 179° |
| 2026-05-07 20:26 | 30.70689 | -84.37684 | 10603 ft | 339 kts | 179° |
| 2026-05-07 20:26 | 30.68369 | -84.37640 | 10447 ft | 328 kts | 179° |
| 2026-05-07 20:26 | 30.66126 | -84.37597 | 10286 ft | 317 kts | 179° |
| 2026-05-07 20:26 | 30.63960 | -84.37555 | 10146 ft | 306 kts | 179° |
| 2026-05-07 20:27 | 30.61864 | -84.37514 | 10024 ft | 296 kts | 179° |
| 2026-05-07 20:27 | 30.59849 | -84.37476 | 9748 ft | 293 kts | 179° |
| 2026-05-07 20:27 | 30.57819 | -84.37436 | 9422 ft | 291 kts | 179° |
| 2026-05-07 20:27 | 30.55789 | -84.37204 | 9047 ft | 290 kts | 160° |
| 2026-05-07 20:28 | 30.54069 | -84.36113 | 8807 ft | 284 kts | 144° |
| 2026-05-07 20:28 | 30.52465 | -84.34730 | 8100 ft | 294 kts | 142° |
| 2026-05-07 20:28 | 30.50841 | -84.33265 | 7343 ft | 299 kts | 142° |
| 2026-05-07 20:28 | 30.49397 | -84.31521 | 6526 ft | 304 kts | 121° |
| 2026-05-07 20:29 | 30.48691 | -84.29224 | 5725 ft | 307 kts | 96° |
| 2026-05-07 20:29 | 30.48651 | -84.26771 | 5335 ft | 295 kts | 88° |
| 2026-05-07 20:29 | 30.48737 | -84.24468 | 5193 ft | 278 kts | 87° |
| 2026-05-07 20:29 | 30.48836 | -84.22273 | 5098 ft | 267 kts | 87° |
| 2026-05-07 20:30 | 30.48935 | -84.20168 | 5013 ft | 256 kts | 86° |
| 2026-05-07 20:30 | 30.49033 | -84.18148 | 4932 ft | 246 kts | 86° |
| 2026-05-07 20:30 | 30.49129 | -84.16197 | 4739 ft | 241 kts | 86° |
| 2026-05-07 20:30 | 30.49225 | -84.14266 | 4444 ft | 240 kts | 86° |
| 2026-05-07 20:31 | 30.49321 | -84.12336 | 4155 ft | 239 kts | 86° |
| 2026-05-07 20:31 | 30.49418 | -84.10409 | 3820 ft | 240 kts | 86° |
| 2026-05-07 20:31 | 30.49494 | -84.08490 | 3717 ft | 232 kts | 93° |
| 2026-05-07 20:31 | 30.49021 | -84.06740 | 3676 ft | 230 kts | 126° |
| 2026-05-07 20:32 | 30.47824 | -84.05586 | 3665 ft | 221 kts | 157° |
| 2026-05-07 20:32 | 30.46412 | -84.05054 | 3638 ft | 206 kts | 172° |
| 2026-05-07 20:32 | 30.45042 | -84.05214 | 3630 ft | 197 kts | 195° |
| 2026-05-07 20:32 | 30.43724 | -84.05646 | 3672 ft | 196 kts | 202° |
| 2026-05-07 20:33 | 30.42518 | -84.06376 | 3677 ft | 196 kts | 209° |
| 2026-05-07 20:33 | 30.41329 | -84.07152 | 3678 ft | 196 kts | 209° |
| 2026-05-07 20:33 | 30.40146 | -84.07940 | 3677 ft | 196 kts | 214° |
| 2026-05-07 20:33 | 30.39319 | -84.09149 | 3625 ft | 195 kts | 258° |
| 2026-05-07 20:34 | 30.39305 | -84.10691 | 3671 ft | 191 kts | 271° |
| 2026-05-07 20:34 | 30.39306 | -84.12260 | 3540 ft | 199 kts | 270° |
| 2026-05-07 20:34 | 30.39308 | -84.13854 | 3288 ft | 195 kts | 270° |
| 2026-05-07 20:34 | 30.39304 | -84.15398 | 3027 ft | 189 kts | 269° |
| 2026-05-07 20:35 | 30.39293 | -84.16883 | 2789 ft | 180 kts | 269° |
| 2026-05-07 20:35 | 30.39279 | -84.18301 | 2547 ft | 170 kts | 269° |
| 2026-05-07 20:35 | 30.39267 | -84.19624 | 2318 ft | 158 kts | 270° |
| 2026-05-07 20:35 | 30.39255 | -84.20881 | 2126 ft | 157 kts | 270° |
| 2026-05-07 20:36 | 30.39244 | -84.22136 | 1935 ft | 154 kts | 270° |
| 2026-05-07 20:36 | 30.39233 | -84.23379 | 1721 ft | 154 kts | 270° |
| 2026-05-07 20:36 | 30.39222 | -84.24622 | 1512 ft | 154 kts | 270° |
| 2026-05-07 20:36 | 30.39211 | -84.25865 | 1309 ft | 154 kts | 270° |
| 2026-05-07 20:37 | 30.39201 | -84.27102 | 1100 ft | 153 kts | 270° |
| 2026-05-07 20:37 | 30.39190 | -84.28327 | 900 ft | 152 kts | 270° |
| 2026-05-07 20:37 | 30.39180 | -84.29556 | 703 ft | 152 kts | 270° |
| 2026-05-07 20:37 | 30.39171 | -84.30762 | 490 ft | 151 kts | 270° |
| 2026-05-07 20:38 | 30.39161 | -84.31967 | 307 ft | 150 kts | 270° |
| 2026-05-07 20:38 | 30.39151 | -84.33179 | 107 ft | 151 kts | 270° |
| 2026-05-07 20:38 | 30.39143 | -84.34304 | 70 ft | 115 kts | 269° |
| 2026-05-07 20:38 | 30.39136 | -84.35018 | 65 ft | 73 kts | 269° |
| 2026-05-07 20:39 | 30.39134 | -84.35425 | 72 ft | 31 kts | 269° |
| 2026-05-07 20:39 | 30.39167 | -84.35587 | 72 ft | 21 kts | 336° |
| 2026-05-07 20:39 | 30.39221 | -84.35593 | 74 ft | 0 kts | 360° |
| 2026-05-07 20:40 | 30.39222 | -84.35593 | 74 ft | 0 kts | 360° |
| 2026-05-07 20:40 | 30.39255 | -84.35593 | 74 ft | 11 kts | 4° |
| 2026-05-07 20:40 | 30.39299 | -84.35510 | 70 ft | 15 kts | 88° |
| 2026-05-07 20:41 | 30.39299 | -84.35352 | 65 ft | 22 kts | 90° |
| 2026-05-07 20:41 | 30.39301 | -84.35170 | 63 ft | 22 kts | 89° |
| 2026-05-07 20:41 | 30.39303 | -84.34993 | 69 ft | 22 kts | 90° |
| 2026-05-07 20:41 | 30.39304 | -84.34821 | 68 ft | 21 kts | 89° |
| 2026-05-07 20:42 | 30.39305 | -84.34655 | 69 ft | 20 kts | 89° |
| 2026-05-07 20:42 | 30.39315 | -84.34527 | 68 ft | 14 kts | 54° |
| 2026-05-07 20:42 | 30.39381 | -84.34503 | 69 ft | 7 kts | 35° |
| 2026-05-07 20:42 | 30.39405 | -84.34482 | 71 ft | 1 kts | 40° |
| 2026-05-07 20:43 | 30.39411 | -84.34475 | 70 ft | 1 kts | 42° |
| 2026-05-07 20:43 | 30.39418 | -84.34468 | 71 ft | 1 kts | 44° |
| 2026-05-07 20:43 | 30.39424 | -84.34461 | 72 ft | 1 kts | 45° |
| 2026-05-07 20:43 | 30.39427 | -84.34458 | 61 ft | 0 kts | 45° |